Time;durP1;ratioP1;P1;durP2;ratioP2;P2;SDS_P1;SDS_P2;PMS_P1;PMS_P2;Temp;Humidity;BMP_temperature;BMP_pressure;BME280_temperature;BME280_humidity;BME280_pressure;Samples;Min_cycle;Max_cycle;Signal;HPM_P1;HPM_P2
2022/02/03 00:05:21;;;;;;;0.00;0.00;;;1.20;86.30;;;;;;20813280;28;20029;-45
2022/02/03 00:25:48;;;;;;;0.00;0.00;;;1.70;83.90;;;;;;20809356;28;20107;-45
2022/02/03 00:56:26;;;;;;;0.05;0.00;;;2.50;80.70;;;;;;20759797;28;20030;-46
2022/02/03 01:06:33;;;;;;;0.08;0.00;;;2.90;78.60;;;;;;20759404;28;20470;-47
2022/02/03 01:47:51;;;;;;;0.00;0.00;;;3.40;75.60;;;;;;20738054;28;20054;-46
2022/02/03 01:58:01;;;;;;;0.00;0.00;;;3.30;75.80;;;;;;20755414;28;20030;-44
2022/02/03 02:08:09;;;;;;;0.00;0.00;;;3.40;75.60;;;;;;20754505;28;20034;-43
2022/02/03 02:38:55;;;;;;;0.00;0.00;;;3.30;75.70;;;;;;20752225;28;20049;-47
2022/02/03 02:49:43;;;;;;;0.00;0.00;;;3.20;75.70;;;;;;20751610;28;20095;-46
2022/02/03 03:41:19;;;;;;;0.00;0.00;;;3.40;76.30;;;;;;20748109;28;20533;-44
2022/02/03 03:51:28;;;;;;;0.00;0.00;;;3.40;76.40;;;;;;20748491;28;20033;-42
2022/02/03 04:34:03;;;;;;;0.57;0.00;;;3.30;76.80;;;;;;20745866;28;20274;-45
2022/02/03 06:29:52;;;;;;;0.20;0.00;;;1.70;83.90;;;;;;20736613;28;20068;-45
2022/02/03 06:39:54;;;;;;;0.22;0.00;;;1.70;84.80;;;;;;20752764;28;20135;-45
2022/02/03 07:00:17;;;;;;;;;;;1.40;86.60;;;;;;20816784;28;20041;-45
2022/02/03 07:10:20;;;;;;;0.00;0.00;;;1.30;87.50;;;;;;20795322;28;19909;-46
2022/02/03 07:20:24;;;;;;;0.00;0.00;;;1.50;88.00;;;;;;20812746;28;20493;-46
2022/02/03 07:30:27;;;;;;;0.00;0.00;;;1.50;87.90;;;;;;20811299;28;20038;-45
2022/02/03 07:40:29;;;;;;;0.20;0.00;;;1.70;87.50;;;;;;20813138;28;20099;-45
2022/02/03 07:50:33;;;;;;;0.20;0.00;;;2.10;86.70;;;;;;20792513;28;20037;-46
2022/02/03 08:00:35;;;;;;;0.25;0.00;;;2.60;85.10;;;;;;20708684;28;20042;-49
2022/02/03 08:54:59;;;;;;;0.07;0.00;;;3.70;83.10;;;;;;21137115;27;20432;-46
2022/02/03 09:57:06;;;;;;;0.43;0.17;;;9.90;67.00;;;;;;21125537;28;20032;-46
2022/02/03 10:07:15;;;;;;;1.00;0.10;;;9.70;66.50;;;;;;21061148;28;20420;-44
2022/02/03 10:17:30;;;;;;;0.45;0.20;;;9.70;67.60;;;;;;21072973;28;20397;-48
2022/02/03 10:27:39;;;;;;;0.68;0.30;;;9.80;67.70;;;;;;21072727;28;20036;-44
2022/02/03 10:37:46;;;;;;;1.42;0.60;;;10.30;66.00;;;;;;21071222;28;20082;-44
2022/02/03 10:58:40;;;;;;;3.10;1.60;;;10.40;66.30;;;;;;21069177;28;20391;-44
2022/02/03 11:08:52;;;;;;;2.70;1.60;;;10.40;66.30;;;;;;21050757;28;20032;-48
2022/02/03 11:19:05;;;;;;;3.13;1.50;;;10.30;66.50;;;;;;21013937;28;20085;-46
2022/02/03 12:11:38;;;;;;;4.07;2.00;;;11.10;65.50;;;;;;20388123;29;20091;-43
2022/02/03 12:21:54;;;;;;;4.57;2.47;;;10.50;66.90;;;;;;20568949;28;20545;-44
2022/02/03 12:32:11;;;;;;;5.18;2.58;;;10.60;67.50;;;;;;20707150;28;20529;-44
2022/02/03 12:42:23;;;;;;;5.78;2.63;;;10.50;66.00;;;;;;20828781;28;20160;-43
2022/02/03 12:52:29;;;;;;;4.65;2.53;;;10.40;66.00;;;;;;21015893;28;20056;-44
2022/02/03 13:02:32;;;;;;;4.18;2.50;;;10.20;66.00;;;;;;21062225;28;20044;-46
2022/02/03 13:12:39;;;;;;;6.68;2.88;;;10.40;66.70;;;;;;21061209;28;20066;-44
2022/02/03 13:22:57;;;;;;;5.60;2.63;;;10.20;66.40;;;;;;21044012;28;20028;-46
2022/02/03 13:33:03;;;;;;;10.73;5.35;;;9.80;66.40;;;;;;21062095;28;20036;-45
2022/02/03 13:43:13;;;;;;;8.88;5.75;;;9.60;75.90;;;;;;21075356;28;20039;-46
2022/02/03 13:53:21;;;;;;;10.93;6.17;;;9.30;79.40;;;;;;21042587;28;20098;-46
2022/02/03 14:14:27;;;;;;;8.90;5.35;;;7.90;86.40;;;;;;21069567;28;20441;-44
2022/02/03 14:34:49;;;;;;;13.13;5.20;;;7.70;88.90;;;;;;21068971;28;20056;-47
2022/02/03 14:44:52;;;;;;;11.98;5.38;;;7.10;91.10;;;;;;21042578;28;20036;-46
2022/02/03 15:05:23;;;;;;;13.55;6.03;;;5.90;93.90;;;;;;21066394;28;20093;-48
2022/02/03 15:15:27;;;;;;;11.52;5.93;;;5.70;94.60;;;;;;21001863;28;20069;-46
2022/02/03 15:25:30;;;;;;;9.10;4.38;;;5.50;95.30;;;;;;21025033;28;20040;-46
2022/02/03 15:35:47;;;;;;;9.50;5.50;;;5.20;95.50;;;;;;21022024;28;20032;-47
2022/02/03 15:45:54;;;;;;;8.63;4.97;;;4.60;96.90;;;;;;21058689;28;20113;-46
2022/02/03 16:20:08;;;;;;;6.03;3.17;;;4.10;93.80;;;;;;21149578;27;20386;-49
2022/02/03 16:41:03;;;;;;;9.80;5.47;;;3.10;94.20;;;;;;21149932;28;20441;-46
2022/02/03 16:51:25;;;;;;;9.27;4.10;;;2.70;95.40;;;;;;21171911;28;20100;-48
2022/02/03 17:01:28;;;;;;;12.63;5.10;;;2.20;95.60;;;;;;21216692;28;20040;-44
2022/02/03 17:11:32;;;;;;;7.78;3.53;;;2.40;95.40;;;;;;21182080;28;20396;-46
2022/02/03 17:21:34;;;;;;;7.90;3.47;;;2.70;93.00;;;;;;21146403;28;20787;-46
2022/02/03 18:53:56;;;;;;;7.28;3.40;;;1.40;93.60;;;;;;21130882;28;20555;-46
2022/02/03 20:06:31;;;;;;;8.32;4.60;;;2.00;97.20;;;;;;21129235;28;20079;-46
2022/02/03 20:16:34;;;;;;;10.10;4.85;;;1.90;97.60;;;;;;21045733;28;20089;-48
2022/02/03 20:26:38;;;;;;;11.48;6.43;;;1.70;98.30;;;;;;21114971;28;20080;-48
2022/02/03 20:36:41;;;;;;;12.93;5.90;;;1.60;99.90;;;;;;21096681;28;20085;-47
2022/02/03 20:46:44;;;;;;;9.50;5.05;;;1.70;99.90;;;;;;21106923;28;20036;-46
2022/02/03 20:56:47;;;;;;;11.88;5.75;;;1.90;99.90;;;;;;21102870;28;20032;-45
2022/02/03 21:06:50;;;;;;;10.45;4.90;;;1.80;99.90;;;;;;21147069;28;20040;-46
2022/02/03 21:16:52;;;;;;;10.95;6.22;;;1.70;99.90;;;;;;21106107;28;20396;-49
2022/02/03 21:26:58;;;;;;;11.63;6.60;;;1.20;99.90;;;;;;21088291;28;20043;-45
2022/02/03 21:37:02;;;;;;;10.40;6.35;;;0.90;99.90;;;;;;21128875;28;20085;-45
2022/02/03 21:47:04;;;;;;;12.93;5.53;;;0.70;99.90;;;;;;21105466;28;20088;-45
2022/02/03 21:57:09;;;;;;;11.23;6.00;;;0.50;99.90;;;;;;21079179;28;20364;-45
2022/02/03 22:07:12;;;;;;;10.85;5.90;;;0.30;99.90;;;;;;21126558;28;20040;-49
2022/02/03 22:17:15;;;;;;;15.13;6.90;;;0.00;99.90;;;;;;21087685;28;20044;-45
2022/02/03 22:27:40;;;;;;;12.65;5.80;;;0.50;99.90;;;;;;21104274;28;20036;-45
2022/02/03 22:48:23;;;;;;;10.67;5.57;;;0.40;99.90;;;;;;21118067;28;20403;-48
2022/02/03 23:08:56;;;;;;;15.05;6.22;;;0.20;99.90;;;;;;21119155;28;20532;-46
2022/02/03 23:19:15;;;;;;;11.57;6.50;;;0.10;99.90;;;;;;21088198;28;20052;-45
2022/02/03 23:29:20;;;;;;;12.02;6.13;;;-0.20;99.90;;;;;;21127254;28;20061;-46
2022/02/03 23:39:32;;;;;;;13.57;7.03;;;-0.50;99.90;;;;;;21092747;28;20480;-48
